Time;durP1;ratioP1;P1;durP2;ratioP2;P2;SDS_P1;SDS_P2;PMS_P1;PMS_P2;Temp;Humidity;BMP_temperature;BMP_pressure;BME280_temperature;BME280_humidity;BME280_pressure;Samples;Min_cycle;Max_cycle;Signal;HPM_P1;HPM_P2
2023/01/29 00:01:06;;;;;;;12.02;5.53;;;-0.10;99.90;;;-1.17;100.00;98303.03;5004001;28;20045;-56
2023/01/29 00:03:32;;;;;;;8.95;5.82;;;-0.10;99.90;;;-1.17;100.00;98311.69;5004739;28;20037;-57
2023/01/29 00:05:58;;;;;;;9.27;5.40;;;-0.10;99.90;;;-1.21;100.00;98314.16;5009221;28;20624;-57
2023/01/29 00:08:25;;;;;;;6.00;4.82;;;-0.10;99.90;;;-1.15;100.00;98316.88;5012671;28;20075;-57
2023/01/29 00:10:51;;;;;;;8.70;5.28;;;-0.10;99.90;;;-1.21;100.00;98306.41;5006452;28;20037;-57
2023/01/29 00:13:17;;;;;;;9.82;5.35;;;-0.10;99.90;;;-1.19;100.00;98320.25;5004668;28;20037;-57
2023/01/29 00:15:54;;;;;;;8.32;5.38;;;-0.10;99.90;;;-1.22;100.00;98315.88;5006016;28;20564;-57
2023/01/29 00:18:19;;;;;;;8.07;5.32;;;-0.10;99.90;;;-1.22;100.00;98321.06;5010726;28;20091;-56
2023/01/29 00:20:45;;;;;;;6.97;5.00;;;-0.10;99.90;;;-1.17;100.00;98313.41;5009964;28;20481;-56
2023/01/29 00:23:11;;;;;;;7.07;4.93;;;-0.10;99.90;;;-1.14;100.00;98310.88;5008413;28;20025;-56
2023/01/29 00:25:37;;;;;;;6.65;4.78;;;-0.10;99.90;;;-1.10;100.00;98304.06;5008043;28;20041;-57
2023/01/29 00:28:02;;;;;;;8.75;5.10;;;-0.10;99.90;;;-1.08;100.00;98303.25;5002876;28;20037;-57
2023/01/29 00:30:28;;;;;;;8.05;5.18;;;0.00;99.90;;;-1.06;100.00;98319.72;5008303;28;20121;-57
2023/01/29 00:32:54;;;;;;;9.20;4.97;;;0.00;99.90;;;-1.05;100.00;98310.25;5010193;28;20136;-57
2023/01/29 00:35:19;;;;;;;6.50;4.70;;;0.00;99.90;;;-1.02;100.00;98320.69;5006970;28;20029;-57
2023/01/29 00:37:45;;;;;;;7.35;5.45;;;0.00;99.90;;;-1.10;100.00;98314.44;5012233;28;20163;-58
2023/01/29 00:40:11;;;;;;;9.70;5.45;;;0.00;99.90;;;-1.17;100.00;98306.53;5008262;28;20033;-58
2023/01/29 00:45:21;;;;;;;7.80;4.85;;;-0.10;99.90;;;-1.18;100.00;98298.72;5008745;28;20609;-58
2023/01/29 00:47:47;;;;;;;6.18;4.40;;;-0.10;99.90;;;-1.17;100.00;98301.34;5014283;28;20033;-57
2023/01/29 00:50:13;;;;;;;7.00;5.10;;;-0.10;99.90;;;-1.18;100.00;98296.13;5010847;28;20118;-57
2023/01/29 00:52:42;;;;;;;6.68;4.80;;;-0.10;99.90;;;-1.14;100.00;98307.44;5010602;28;20026;-57
2023/01/29 00:55:09;;;;;;;9.27;4.43;;;-0.10;99.90;;;-1.16;100.00;98302.22;5009638;28;20030;-57
2023/01/29 00:57:36;;;;;;;7.60;4.65;;;-0.10;99.90;;;-1.10;100.00;98304.06;5006658;28;20044;-57
2023/01/29 01:00:07;;;;;;;8.55;5.40;;;-0.10;99.90;;;-1.20;100.00;98305.59;5007631;28;20503;-57
2023/01/29 01:05:18;;;;;;;6.95;4.75;;;-0.10;99.90;;;-1.26;100.00;98305.41;5010953;28;20514;-58
2023/01/29 01:07:49;;;;;;;8.45;5.35;;;-0.20;99.90;;;-1.29;100.00;98300.16;5009964;28;20041;-57
2023/01/29 01:10:30;;;;;;;7.10;5.15;;;-0.20;99.90;;;-1.43;100.00;98295.53;5008424;28;20448;-57
2023/01/29 01:13:03;;;;;;;7.93;5.55;;;-0.20;99.90;;;-1.43;100.00;98298.13;4994777;28;20116;-57
2023/01/29 01:15:34;;;;;;;8.13;5.57;;;-0.30;99.90;;;-1.40;100.00;98300.78;4998015;28;20041;-57
2023/01/29 01:18:01;;;;;;;8.18;5.75;;;-0.30;99.90;;;-1.35;100.00;98303.47;5009190;28;20446;-57
2023/01/29 01:20:30;;;;;;;9.25;5.28;;;-0.30;99.90;;;-1.26;100.00;98313.19;4991082;28;20041;-58
2023/01/29 01:22:56;;;;;;;7.68;5.38;;;-0.30;99.90;;;-1.28;100.00;98304.50;4984766;28;20069;-57
2023/01/29 01:25:26;;;;;;;9.13;5.32;;;-0.20;99.90;;;-1.33;100.00;98303.50;5008338;28;20113;-57
2023/01/29 01:27:53;;;;;;;7.60;4.82;;;-0.20;99.90;;;-1.43;100.00;98294.66;5008223;28;20880;-56
2023/01/29 01:30:19;;;;;;;6.75;4.97;;;-0.30;99.90;;;-1.48;100.00;98298.84;5009584;28;20485;-57
2023/01/29 01:32:45;;;;;;;9.93;6.00;;;-0.30;99.90;;;-1.51;100.00;98302.22;5013173;28;20037;-56
2023/01/29 01:35:13;;;;;;;8.80;5.60;;;-0.40;99.90;;;-1.44;100.00;98296.34;5007314;28;20760;-57
2023/01/29 01:37:39;;;;;;;8.23;4.95;;;-0.40;99.90;;;-1.47;100.00;98297.97;5014240;28;20123;-55
2023/01/29 01:40:18;;;;;;;8.27;5.60;;;-0.40;99.90;;;-1.43;100.00;98302.44;5014313;28;20072;-57
2023/01/29 01:42:54;;;;;;;7.72;5.13;;;-0.40;99.90;;;-1.41;100.00;98306.78;5013211;28;20033;-56
2023/01/29 01:45:25;;;;;;;8.43;5.57;;;-0.40;99.90;;;-1.44;100.00;98298.06;5013791;28;20416;-57
2023/01/29 01:48:23;;;;;;;8.55;5.38;;;-0.30;99.90;;;-1.48;100.00;98301.44;5013209;28;20053;-57
2023/01/29 01:50:56;;;;;;;7.75;5.18;;;-0.40;99.90;;;-1.46;100.00;98302.34;5009481;28;20068;-57
2023/01/29 01:53:33;;;;;;;10.32;5.65;;;-0.40;99.90;;;-1.49;100.00;98302.25;4995954;28;20034;-56
2023/01/29 01:56:07;;;;;;;8.05;5.07;;;-0.40;99.90;;;-1.50;100.00;98296.22;4981946;28;20231;-57
2023/01/29 01:58:43;;;;;;;7.70;5.43;;;-0.40;99.90;;;-1.53;100.00;98298.72;5013471;28;20038;-57
2023/01/29 02:01:10;;;;;;;8.38;5.57;;;-0.40;99.90;;;-1.63;100.00;98289.84;5012445;28;20033;-58
2023/01/29 02:09:33;;;;;;;7.70;5.18;;;-0.50;99.90;;;-1.66;100.00;98294.06;5001397;28;20048;-58
2023/01/29 02:12:11;;;;;;;8.93;5.55;;;-0.50;99.90;;;-1.70;100.00;98305.19;4995263;28;20477;-58
2023/01/29 02:14:39;;;;;;;8.57;5.20;;;-0.60;99.90;;;-1.71;100.00;98309.47;4995107;28;20235;-58
2023/01/29 02:17:08;;;;;;;7.13;5.07;;;-0.60;99.90;;;-1.72;100.00;98307.72;5008400;28;20033;-58
2023/01/29 02:20:04;;;;;;;7.60;5.05;;;-0.60;99.90;;;-1.73;100.00;98311.13;4994264;28;20039;-55
2023/01/29 02:23:05;;;;;;;9.75;5.30;;;-0.60;99.90;;;-1.60;100.00;98309.75;5011757;28;20097;-56
2023/01/29 02:26:03;;;;;;;9.02;5.03;;;-0.60;99.90;;;-1.62;100.00;98307.09;4996185;28;20029;-56
2023/01/29 02:29:21;;;;;;;6.57;4.70;;;-0.50;99.90;;;-1.60;100.00;98310.63;4994745;28;20091;-57
2023/01/29 02:31:56;;;;;;;10.07;5.18;;;-0.50;99.90;;;-1.63;100.00;98314.84;5010956;28;20110;-57
2023/01/29 02:37:39;;;;;;;8.02;4.75;;;-0.60;99.90;;;-1.70;100.00;98311.22;4995610;28;20056;-57
2023/01/29 02:40:15;;;;;;;7.97;5.00;;;-0.60;99.90;;;-1.87;100.00;98287.50;4996719;28;20037;-57
2023/01/29 02:42:52;;;;;;;8.35;4.90;;;-0.60;99.90;;;-1.74;100.00;98305.09;5009930;28;20725;-57
2023/01/29 02:45:27;;;;;;;10.07;5.25;;;-0.60;99.90;;;-1.79;100.00;98311.84;4975263;28;20029;-57
2023/01/29 02:48:01;;;;;;;7.63;5.07;;;-0.70;99.90;;;-1.81;100.00;98307.47;4991286;28;20489;-57
2023/01/29 02:50:36;;;;;;;8.63;4.93;;;-0.70;99.90;;;-1.85;100.00;98303.06;5008745;28;20128;-57
2023/01/29 02:53:31;;;;;;;10.70;4.97;;;-0.70;99.90;;;-1.86;100.00;98307.34;5012329;28;20030;-53
2023/01/29 02:56:21;;;;;;;7.00;4.82;;;-0.70;99.90;;;-1.90;100.00;98302.94;4996716;28;20270;-56
2023/01/29 02:58:56;;;;;;;6.25;4.55;;;-0.80;99.90;;;-1.90;100.00;98300.34;4994668;28;20038;-58
2023/01/29 03:01:50;;;;;;;7.30;4.65;;;-0.80;99.90;;;-1.88;100.00;98290.03;5009484;28;20116;-56
2023/01/29 03:04:25;;;;;;;9.38;5.32;;;-0.80;99.90;;;-1.92;100.00;98286.50;5002462;28;20034;-57
2023/01/29 03:06:58;;;;;;;9.52;5.28;;;-0.70;99.90;;;-1.88;100.00;98290.94;4993824;28;20563;-57
2023/01/29 03:09:47;;;;;;;7.47;4.57;;;-0.70;99.90;;;-1.89;100.00;98298.63;4977987;28;20276;-57
2023/01/29 03:12:34;;;;;;;7.90;4.93;;;-0.80;99.90;;;-1.87;100.00;98297.84;4994683;28;20061;-55
2023/01/29 03:15:10;;;;;;;6.90;4.57;;;-0.70;99.90;;;-1.85;100.00;98306.50;4992607;28;20034;-57
2023/01/29 03:17:56;;;;;;;9.05;4.68;;;-0.70;99.90;;;-1.85;100.00;98298.75;4996525;28;20025;-57
2023/01/29 03:20:31;;;;;;;7.13;4.68;;;-0.70;99.90;;;-1.82;100.00;98297.97;4990864;28;20033;-56
2023/01/29 03:23:05;;;;;;;9.18;4.85;;;-0.70;99.90;;;-1.81;100.00;98299.69;5009290;28;20112;-56
2023/01/29 03:34:22;;;;;;;8.55;5.47;;;-0.70;99.90;;;-1.77;100.00;98304.13;4991056;28;20845;-57
2023/01/29 03:37:00;;;;;;;8.23;4.57;;;-0.70;99.90;;;-1.78;100.00;98298.06;4989939;28;20236;-57
2023/01/29 03:39:27;;;;;;;8.35;4.88;;;-0.60;99.90;;;-1.83;100.00;98302.28;5009055;28;20025;-57
2023/01/29 03:42:16;;;;;;;7.47;4.43;;;-0.70;99.90;;;-1.81;100.00;98290.25;5005910;28;20118;-57
2023/01/29 03:45:00;;;;;;;7.22;5.10;;;-0.70;99.90;;;-1.74;100.00;98292.16;5007412;28;20375;-56
2023/01/29 03:47:45;;;;;;;8.38;4.93;;;-0.60;99.90;;;-1.78;100.00;98298.06;5007629;28;20619;-56
2023/01/29 03:50:43;;;;;;;7.35;4.97;;;-0.70;99.90;;;-1.77;100.00;98294.66;5016650;28;20091;-57
2023/01/29 03:53:43;;;;;;;7.68;4.80;;;-0.70;99.90;;;-1.80;100.00;98297.16;4992281;28;20038;-55
2023/01/29 03:56:48;;;;;;;6.78;4.45;;;-0.70;99.90;;;-1.81;100.00;98298.00;4990662;28;20424;-57
2023/01/29 03:59:37;;;;;;;7.38;5.25;;;-0.70;99.90;;;-1.87;100.00;98303.00;4993098;28;20124;-57
2023/01/29 04:02:10;;;;;;;9.07;4.68;;;-0.70;99.90;;;-1.92;100.00;98299.41;5007239;28;20122;-57
2023/01/29 04:04:40;;;;;;;7.63;5.30;;;-0.80;99.90;;;-1.91;100.00;98290.84;4986301;28;21007;-56
2023/01/29 04:07:13;;;;;;;10.32;5.45;;;-0.80;99.90;;;-1.99;100.00;98290.66;5013641;28;20741;-57
2023/01/29 04:09:53;;;;;;;10.38;5.35;;;-0.80;99.90;;;-2.00;100.00;98301.81;5000052;28;20302;-57
2023/01/29 04:12:38;;;;;;;9.05;4.80;;;-0.80;99.90;;;-2.03;100.00;98303.44;4985753;28;20124;-57
2023/01/29 04:15:08;;;;;;;9.13;5.35;;;-0.90;99.90;;;-2.06;100.00;98300.75;4994144;28;20094;-57
2023/01/29 04:17:39;;;;;;;7.90;5.38;;;-0.90;99.90;;;-2.06;100.00;98296.47;4991843;28;20045;-57
2023/01/29 04:20:05;;;;;;;8.55;5.10;;;-0.90;99.90;;;-2.04;100.00;98301.69;5003901;28;20025;-57
2023/01/29 04:22:37;;;;;;;8.23;5.40;;;-0.90;99.90;;;-2.00;100.00;98300.94;4987607;28;20113;-56
2023/01/29 04:25:08;;;;;;;7.97;5.20;;;-0.90;99.90;;;-2.00;100.00;98304.38;5002579;28;20037;-55
2023/01/29 04:27:51;;;;;;;6.97;4.97;;;-0.90;99.90;;;-1.88;100.00;98301.28;5008949;28;20099;-57
2023/01/29 04:30:26;;;;;;;9.20;5.65;;;-0.80;99.90;;;-1.94;100.00;98306.25;4973246;28;20458;-57
2023/01/29 04:33:10;;;;;;;8.32;4.80;;;-0.80;99.90;;;-1.91;100.00;98306.34;5000370;28;21313;-57
2023/01/29 04:35:59;;;;;;;8.73;5.07;;;-0.80;99.90;;;-1.92;100.00;98308.06;4979437;28;20244;-57
2023/01/29 04:38:50;;;;;;;8.63;5.00;;;-0.80;99.90;;;-1.99;100.00;98310.44;5005665;28;20125;-57
2023/01/29 04:41:33;;;;;;;7.90;5.38;;;-0.80;99.90;;;-1.98;100.00;98304.44;5011653;28;20028;-57
2023/01/29 04:44:11;;;;;;;8.30;5.63;;;-0.80;99.90;;;-2.05;100.00;98294.75;5008128;28;20033;-56
2023/01/29 04:47:18;;;;;;;7.72;5.32;;;-0.90;99.90;;;-2.01;100.00;98299.16;5003287;28;20432;-56
2023/01/29 04:50:06;;;;;;;6.95;4.97;;;-0.90;99.90;;;-2.00;100.00;98306.09;5012442;28;20302;-56
2023/01/29 04:52:44;;;;;;;8.45;5.47;;;-0.90;99.90;;;-1.95;100.00;98294.19;4989547;28;20026;-57
2023/01/29 04:55:32;;;;;;;6.35;4.68;;;-0.90;99.90;;;-2.03;100.00;98295.69;5009210;28;20552;-57
2023/01/29 04:58:10;;;;;;;10.32;4.85;;;-0.90;99.90;;;-2.03;100.00;98306.00;5009682;28;20026;-57
2023/01/29 05:00:41;;;;;;;10.38;5.05;;;-0.90;99.90;;;-2.09;100.00;98296.38;5003718;28;20025;-56
2023/01/29 05:03:11;;;;;;;6.82;4.65;;;-0.90;99.90;;;-2.06;100.00;98303.34;4993014;28;20026;-56
2023/01/29 05:05:41;;;;;;;7.68;4.97;;;-0.90;99.90;;;-2.14;100.00;98283.31;4989484;28;20041;-55
2023/01/29 05:08:12;;;;;;;8.20;5.07;;;-0.90;99.90;;;-1.93;100.00;98300.28;4988069;28;20041;-56
2023/01/29 05:10:38;;;;;;;9.10;5.57;;;-0.80;99.90;;;-1.87;100.00;98296.97;5008808;28;20038;-57
2023/01/29 05:13:08;;;;;;;9.98;5.85;;;-0.80;99.90;;;-1.95;100.00;98304.53;4997347;28;20037;-56
2023/01/29 05:15:43;;;;;;;9.10;5.00;;;-0.80;99.90;;;-1.97;100.00;98307.06;4987693;28;20030;-56
2023/01/29 05:18:09;;;;;;;8.15;5.15;;;-0.80;99.90;;;-1.97;100.00;98299.31;4988835;28;20113;-56
2023/01/29 05:20:39;;;;;;;6.55;4.78;;;-0.90;99.90;;;-2.00;100.00;98299.22;5006232;28;20033;-56
2023/01/29 05:23:10;;;;;;;9.45;5.03;;;-0.80;99.90;;;-2.01;100.00;98301.75;4995230;28;20064;-56
2023/01/29 05:25:35;;;;;;;8.15;5.22;;;-0.90;99.90;;;-2.02;100.00;98295.72;5003509;28;20459;-56
2023/01/29 05:28:12;;;;;;;9.23;5.32;;;-0.90;99.90;;;-2.08;100.00;98303.31;5008088;28;20030;-56
2023/01/29 05:30:39;;;;;;;7.53;5.30;;;-0.90;99.90;;;-2.06;100.00;98311.09;5005385;28;20041;-56
2023/01/29 05:33:14;;;;;;;5.85;4.50;;;-0.90;99.90;;;-2.06;100.00;98312.00;5013613;28;20500;-55
2023/01/29 05:35:40;;;;;;;8.27;5.13;;;-1.00;99.90;;;-2.11;100.00;98313.56;5005263;28;20038;-56
2023/01/29 05:38:06;;;;;;;8.45;5.47;;;-1.00;99.90;;;-2.15;100.00;98316.91;5013445;28;20071;-56
2023/01/29 05:40:32;;;;;;;8.68;5.30;;;-1.00;99.90;;;-2.22;100.00;98305.50;5012283;28;20029;-56
2023/01/29 05:42:58;;;;;;;8.43;5.30;;;-1.00;99.90;;;-2.25;100.00;98297.66;5010286;28;20037;-55
2023/01/29 05:45:23;;;;;;;9.35;4.82;;;-1.10;99.90;;;-2.24;100.00;98302.00;5005442;28;20037;-57
2023/01/29 05:47:49;;;;;;;6.30;4.35;;;-1.10;99.90;;;-2.27;100.00;98298.47;5012455;28;20060;-56
2023/01/29 05:50:16;;;;;;;9.90;5.30;;;-1.10;99.90;;;-2.25;100.00;98294.22;5010495;28;20037;-55
2023/01/29 05:52:41;;;;;;;7.90;5.15;;;-1.10;99.90;;;-2.29;100.00;98277.75;5007593;28;20037;-57
2023/01/29 05:55:09;;;;;;;7.90;5.15;;;-1.10;99.90;;;-2.26;100.00;98259.75;5010513;28;20034;-56
2023/01/29 05:57:35;;;;;;;8.75;4.60;;;-1.10;99.90;;;-2.36;100.00;98237.06;5000924;28;20047;-57
2023/01/29 06:00:00;;;;;;;10.68;5.72;;;-1.10;99.90;;;-2.47;100.00;98212.66;5007775;28;20029;-57
2023/01/29 06:02:30;;;;;;;9.38;5.18;;;-1.10;99.90;;;-2.22;100.00;98264.16;5002723;28;20029;-56
2023/01/29 06:04:55;;;;;;;8.02;5.00;;;-1.10;99.90;;;-2.21;100.00;98260.72;4985627;28;20040;-56
2023/01/29 06:07:21;;;;;;;7.72;4.68;;;-1.10;99.90;;;-2.17;100.00;98272.94;5006055;28;20532;-57
2023/01/29 06:09:47;;;;;;;7.32;5.45;;;-1.10;99.90;;;-2.16;100.00;98271.22;4994412;28;20508;-57
2023/01/29 06:12:13;;;;;;;12.05;5.32;;;-1.00;99.90;;;-2.20;100.00;98272.84;5010598;28;20052;-55
2023/01/29 06:14:38;;;;;;;9.55;4.72;;;-1.00;99.90;;;-2.09;100.00;98277.44;5009803;28;20152;-57
2023/01/29 06:17:04;;;;;;;6.80;4.72;;;-1.00;99.90;;;-2.08;100.00;98277.47;5013242;28;20030;-57
2023/01/29 06:19:30;;;;;;;8.35;5.18;;;-1.00;99.90;;;-2.03;100.00;98285.34;5012377;28;20033;-57
2023/01/29 06:21:55;;;;;;;11.32;5.55;;;-0.90;99.90;;;-2.07;100.00;98280.94;5012598;28;20061;-55
2023/01/29 06:24:21;;;;;;;9.25;5.25;;;-0.90;99.90;;;-2.13;100.00;98282.50;5012521;28;20040;-56
2023/01/29 06:26:47;;;;;;;9.95;5.10;;;-1.00;99.90;;;-2.17;100.00;98283.25;5009786;28;20292;-55
2023/01/29 06:29:13;;;;;;;10.95;5.75;;;-1.00;99.90;;;-2.24;100.00;98288.19;5013936;28;20033;-56
2023/01/29 06:31:39;;;;;;;8.60;5.20;;;-1.00;99.90;;;-2.31;100.00;98275.13;5011659;28;20033;-56
2023/01/29 06:34:06;;;;;;;10.05;5.35;;;-1.10;99.90;;;-2.28;100.00;98286.38;5007107;28;20452;-56
2023/01/29 06:36:32;;;;;;;8.05;5.50;;;-1.10;99.90;;;-2.29;100.00;98282.91;5010832;28;20056;-56
2023/01/29 06:38:57;;;;;;;8.30;5.07;;;-1.10;99.90;;;-2.25;100.00;98295.09;5017713;28;20056;-57
2023/01/29 06:41:24;;;;;;;7.65;4.97;;;-1.10;99.90;;;-2.18;100.00;98286.66;5015738;28;20036;-57
2023/01/29 06:43:50;;;;;;;9.93;5.28;;;-1.10;99.90;;;-2.12;100.00;98286.84;5012932;28;20032;-57
2023/01/29 06:46:16;;;;;;;8.38;4.88;;;-1.10;99.90;;;-2.07;100.00;98286.97;5012738;28;20068;-56
2023/01/29 06:48:42;;;;;;;7.00;4.82;;;-1.00;99.90;;;-2.12;100.00;98292.03;5010304;28;20029;-56
2023/01/29 06:51:09;;;;;;;8.27;5.10;;;-1.00;99.90;;;-2.17;100.00;98288.44;5013343;28;20189;-55
2023/01/29 06:53:37;;;;;;;7.45;5.45;;;-1.00;99.90;;;-2.20;100.00;98285.75;5012849;28;20082;-55
2023/01/29 06:56:04;;;;;;;10.73;5.20;;;-1.00;99.90;;;-2.15;100.00;98289.34;5012908;28;20072;-57
2023/01/29 06:58:30;;;;;;;8.15;5.57;;;-1.10;99.90;;;-2.07;100.00;98299.88;5009377;28;20113;-57
2023/01/29 07:01:10;;;;;;;7.50;4.93;;;-1.00;99.90;;;-2.04;100.00;98302.56;5005515;28;20361;-57
2023/01/29 07:03:36;;;;;;;7.20;4.97;;;-0.90;99.90;;;-2.05;100.00;98299.94;5007265;28;20029;-57
2023/01/29 07:06:03;;;;;;;6.63;4.93;;;-0.90;99.90;;;-2.06;100.00;98309.41;5007726;28;20486;-57
2023/01/29 07:08:29;;;;;;;11.35;5.03;;;-0.90;99.90;;;-2.11;100.00;98300.66;5014341;28;20037;-57
2023/01/29 07:11:01;;;;;;;7.15;4.55;;;-0.90;99.90;;;-2.08;100.00;98303.31;4988658;28;20560;-57
2023/01/29 07:13:27;;;;;;;9.00;4.97;;;-1.00;99.90;;;-2.03;100.00;98299.13;5007001;28;20500;-57
2023/01/29 07:15:53;;;;;;;8.00;5.28;;;-0.90;99.90;;;-2.08;100.00;98297.25;4991458;28;20148;-57
2023/01/29 07:18:19;;;;;;;8.35;5.43;;;-0.90;99.90;;;-2.11;100.00;98296.34;5010103;28;20080;-57
2023/01/29 07:20:44;;;;;;;9.32;4.93;;;-1.00;99.90;;;-2.10;100.00;98310.13;4997530;28;20045;-57
2023/01/29 07:23:12;;;;;;;7.55;5.40;;;-0.90;99.90;;;-2.09;100.00;98318.78;5014419;28;20518;-58
2023/01/29 07:25:39;;;;;;;8.23;4.55;;;-1.00;99.90;;;-2.03;100.00;98308.59;5008677;28;20038;-56
2023/01/29 07:28:05;;;;;;;7.60;4.88;;;-0.90;99.90;;;-1.97;100.00;98311.38;5012516;28;20057;-58
2023/01/29 07:30:32;;;;;;;10.05;5.13;;;-0.90;99.90;;;-1.97;100.00;98306.19;4991344;28;20148;-58
2023/01/29 07:33:07;;;;;;;8.73;5.40;;;-0.80;99.90;;;-1.96;100.00;98310.53;4996732;28;20029;-57
2023/01/29 07:35:38;;;;;;;8.25;5.05;;;-0.80;99.90;;;-1.98;100.00;98315.66;5015262;28;20280;-55
2023/01/29 07:38:05;;;;;;;8.68;4.80;;;-0.80;99.90;;;-1.96;100.00;98311.38;5015921;28;20513;-57
2023/01/29 07:40:31;;;;;;;9.13;5.28;;;-0.80;99.90;;;-1.83;100.00;98324.66;5011643;28;20071;-57
2023/01/29 07:43:02;;;;;;;8.95;5.00;;;-0.70;99.90;;;-1.71;100.00;98318.94;5012882;28;20048;-57
2023/01/29 07:45:28;;;;;;;7.65;5.00;;;-0.70;99.90;;;-1.70;100.00;98333.63;5009031;28;20137;-56
2023/01/29 07:47:55;;;;;;;6.38;4.63;;;-0.60;99.90;;;-1.67;100.00;98332.00;5011054;28;20031;-57
2023/01/29 07:50:24;;;;;;;7.28;4.68;;;-0.60;99.90;;;-1.58;100.00;98327.06;5012442;28;21158;-58
2023/01/29 07:52:50;;;;;;;6.95;5.10;;;-0.50;99.90;;;-1.53;100.00;98327.16;5002120;28;20046;-57
2023/01/29 07:55:16;;;;;;;9.75;4.93;;;-0.40;99.90;;;-1.55;100.00;98334.03;5007549;28;20128;-56
2023/01/29 07:57:43;;;;;;;8.57;4.93;;;-0.40;99.90;;;-1.59;100.00;98342.53;5001541;28;23443;-56
2023/01/29 08:00:10;;;;;;;8.32;5.60;;;-0.50;99.90;;;-1.62;100.00;98343.31;5006617;28;20033;-58
2023/01/29 08:02:36;;;;;;;8.85;5.20;;;-0.50;99.90;;;-1.52;100.00;98341.88;5009401;28;20361;-57
2023/01/29 08:05:02;;;;;;;7.35;5.20;;;-0.50;99.90;;;-1.46;100.00;98342.00;5003900;28;20381;-58
2023/01/29 08:07:28;;;;;;;7.75;5.03;;;-0.40;99.90;;;-1.39;100.00;98338.75;4998189;28;20049;-58
2023/01/29 08:09:53;;;;;;;11.38;5.40;;;-0.40;99.90;;;-1.44;100.00;98334.28;5005101;28;20041;-58
2023/01/29 08:12:19;;;;;;;11.77;5.53;;;-0.30;99.90;;;-1.48;100.00;98341.09;5000463;28;20583;-57
2023/01/29 08:14:45;;;;;;;10.43;5.53;;;-0.30;99.90;;;-1.41;100.00;98331.78;5006579;28;20049;-56
2023/01/29 08:17:12;;;;;;;9.15;5.13;;;-0.30;99.90;;;-1.40;100.00;98336.13;4998987;28;20057;-57
2023/01/29 08:19:37;;;;;;;7.38;4.65;;;-0.30;99.90;;;-1.32;100.00;98338.91;5002123;28;20029;-55
2023/01/29 08:22:04;;;;;;;7.28;4.45;;;-0.30;99.90;;;-1.21;100.00;98335.75;5003286;28;20119;-57
2023/01/29 08:24:30;;;;;;;6.78;4.50;;;-0.20;99.90;;;-1.08;100.00;98349.84;4999770;28;21661;-57
2023/01/29 08:26:56;;;;;;;7.63;4.80;;;-0.10;99.90;;;-1.12;100.00;98337.69;4981501;28;20032;-57
2023/01/29 08:29:22;;;;;;;7.43;4.95;;;0.00;99.90;;;-0.87;100.00;98353.81;5014002;28;20053;-57
2023/01/29 08:31:47;;;;;;;6.97;5.10;;;0.10;99.90;;;-0.93;100.00;98357.16;5013865;28;20518;-56
2023/01/29 08:34:13;;;;;;;8.38;5.28;;;0.10;99.90;;;-1.07;100.00;98351.63;4995269;28;20480;-57
2023/01/29 08:36:39;;;;;;;7.50;5.47;;;0.10;99.90;;;-1.07;100.00;98353.34;5009448;28;20510;-57
2023/01/29 08:39:05;;;;;;;10.20;5.47;;;0.10;99.90;;;-1.13;100.00;98359.25;5009871;28;20138;-57
2023/01/29 08:41:30;;;;;;;7.20;5.20;;;0.00;99.90;;;-1.11;100.00;98356.66;5009065;28;20385;-57
2023/01/29 08:43:56;;;;;;;8.98;5.97;;;0.00;99.90;;;-1.04;100.00;98358.56;5004725;28;20033;-57
2023/01/29 08:46:23;;;;;;;6.88;4.75;;;0.00;99.90;;;-0.99;100.00;98362.16;5002647;28;20493;-57
2023/01/29 08:48:48;;;;;;;7.70;5.25;;;0.10;99.90;;;-0.97;100.00;98369.13;5013690;28;20033;-58
2023/01/29 08:51:14;;;;;;;8.68;5.50;;;0.10;99.90;;;-0.95;100.00;98361.41;4999055;28;20318;-57
2023/01/29 08:53:40;;;;;;;8.48;5.38;;;0.10;99.90;;;-0.84;100.00;98372.91;5004583;28;20515;-58
2023/01/29 08:56:06;;;;;;;8.57;5.40;;;0.20;99.90;;;-0.79;100.00;98368.72;5007309;28;20076;-57
2023/01/29 08:58:31;;;;;;;8.93;5.47;;;0.20;99.90;;;-0.72;100.00;98366.25;5010844;28;20029;-57
2023/01/29 09:01:08;;;;;;;8.82;5.43;;;0.30;99.90;;;-0.55;100.00;98367.50;5007508;28;20458;-57
2023/01/29 09:03:35;;;;;;;7.68;5.35;;;0.40;99.90;;;-0.47;100.00;98362.50;5007834;28;20111;-57
2023/01/29 09:06:01;;;;;;;9.10;5.22;;;0.50;99.90;;;-0.34;100.00;98350.66;4981067;28;20056;-56
2023/01/29 09:08:27;;;;;;;10.13;6.05;;;0.70;99.90;;;-0.35;100.00;98367.94;5006899;28;20417;-58
2023/01/29 09:10:52;;;;;;;7.63;5.45;;;0.70;99.90;;;-0.33;100.00;98362.81;5004201;28;20038;-57
2023/01/29 09:13:18;;;;;;;8.50;6.05;;;0.70;99.90;;;-0.33;100.00;98373.16;4998423;28;20021;-57
2023/01/29 09:15:44;;;;;;;9.50;6.05;;;0.80;99.90;;;-0.22;100.00;98375.13;5006740;28;20570;-55
2023/01/29 09:18:09;;;;;;;7.80;5.40;;;0.80;99.90;;;-0.02;100.00;98377.28;5002962;28;20083;-57
2023/01/29 09:20:37;;;;;;;10.63;6.05;;;0.90;99.90;;;-0.10;100.00;98371.94;5001911;28;20492;-56
2023/01/29 09:23:05;;;;;;;9.55;5.90;;;1.00;99.90;;;-0.06;100.00;98371.16;5002203;28;20083;-57
2023/01/29 09:25:31;;;;;;;7.55;5.43;;;1.00;99.90;;;0.03;100.00;98364.41;5008179;28;20171;-57
2023/01/29 09:27:56;;;;;;;8.65;5.38;;;1.00;99.90;;;0.11;100.00;98379.28;5001058;28;20054;-56
2023/01/29 09:30:22;;;;;;;9.38;5.97;;;1.00;99.90;;;0.12;100.00;98381.03;5009212;28;20041;-57
2023/01/29 09:32:48;;;;;;;6.32;5.00;;;1.10;99.90;;;0.22;100.00;98376.91;4998461;28;20501;-57
2023/01/29 09:35:13;;;;;;;9.32;5.40;;;1.20;99.90;;;0.33;100.00;98385.78;4995371;28;20030;-55
2023/01/29 09:37:39;;;;;;;9.77;5.20;;;1.30;99.90;;;0.40;100.00;98380.72;4995450;28;20681;-58
2023/01/29 09:40:06;;;;;;;7.07;5.18;;;1.40;99.90;;;0.41;100.00;98383.31;5008558;28;20374;-48
2023/01/29 09:42:49;;;;;;;8.52;5.70;;;1.40;99.90;;;0.55;100.00;98381.00;5003353;28;20048;-56
2023/01/29 09:45:25;;;;;;;9.05;5.72;;;1.50;99.90;;;0.63;100.00;98370.75;5003412;28;20091;-56
2023/01/29 09:47:57;;;;;;;12.73;6.07;;;1.70;99.90;;;0.81;100.00;98358.09;5003609;28;20142;-55
2023/01/29 09:50:34;;;;;;;9.88;6.20;;;1.80;99.90;;;0.85;98.99;98367.69;5010461;28;20065;-46
2023/01/29 09:53:34;;;;;;;7.75;5.50;;;1.90;99.90;;;0.72;95.98;98361.41;5000105;28;20127;-54
2023/01/29 09:56:27;;;;;;;14.13;5.75;;;1.90;99.90;;;0.82;97.27;98341.66;5009049;28;20080;-53
2023/01/29 09:58:56;;;;;;;9.32;5.50;;;1.80;99.90;;;0.97;97.80;98325.47;5004107;28;21272;-53
2023/01/29 10:02:06;;;;;;;7.68;5.85;;;1.90;99.90;;;1.19;95.71;98321.47;4987019;28;20268;-51
2023/01/29 10:05:12;;;;;;;9.68;5.28;;;2.20;99.90;;;1.55;94.14;98317.66;4965353;28;20035;-54
2023/01/29 10:08:08;;;;;;;11.80;6.50;;;2.50;99.90;;;1.75;90.72;98310.09;5005125;28;20481;-52
2023/01/29 10:11:08;;;;;;;18.00;7.03;;;2.70;99.90;;;1.79;90.31;98306.69;4982972;28;20481;-51
2023/01/29 10:14:06;;;;;;;11.63;6.15;;;2.90;99.90;;;2.10;90.65;98302.72;4987726;28;20132;-53
2023/01/29 10:16:56;;;;;;;9.82;5.88;;;3.10;99.90;;;2.25;85.91;98296.81;4998066;28;20547;-46
2023/01/29 10:20:16;;;;;;;13.23;5.93;;;3.30;99.90;;;2.37;82.54;98302.97;5014125;28;20031;-54
2023/01/29 10:22:51;;;;;;;10.48;6.70;;;3.30;99.90;;;2.30;82.44;98291.66;4902966;29;20598;-48
2023/01/29 10:25:20;;;;;;;14.38;7.07;;;3.30;99.90;;;2.00;80.44;98303.47;4906584;29;20753;-49
2023/01/29 10:27:52;;;;;;;11.77;6.60;;;3.20;99.90;;;1.88;82.56;98308.53;4959425;28;20038;-51
2023/01/29 10:30:21;;;;;;;12.57;6.07;;;3.10;99.90;;;1.91;84.22;98304.22;5009842;28;20033;-50
2023/01/29 10:32:48;;;;;;;7.05;5.93;;;3.00;99.90;;;2.15;81.87;98323.59;5011770;28;20040;-46
2023/01/29 10:35:42;;;;;;;17.33;6.38;;;3.10;99.90;;;2.32;83.74;98315.13;5013054;28;20088;-50
2023/01/29 10:38:32;;;;;;;8.65;5.85;;;3.30;99.90;;;2.46;83.91;98306.56;4993779;28;20022;-47
2023/01/29 10:41:40;;;;;;;10.35;6.55;;;3.40;99.90;;;2.59;79.40;98301.47;5002712;28;20547;-51
2023/01/29 10:44:31;;;;;;;10.40;6.47;;;3.50;99.90;;;2.69;82.56;98311.09;5007410;28;20408;-48
2023/01/29 10:47:34;;;;;;;16.63;6.90;;;3.60;99.90;;;2.60;78.33;98317.13;4993492;28;20041;-49
2023/01/29 10:50:38;;;;;;;21.00;7.97;;;3.60;99.90;;;2.38;76.80;98323.84;5013028;28;20888;-48
2023/01/29 10:53:28;;;;;;;10.45;6.97;;;3.50;99.90;;;2.09;77.88;98315.72;4998495;28;20033;-47
2023/01/29 10:56:22;;;;;;;10.30;7.50;;;3.30;99.90;;;2.03;80.81;98300.06;5007592;28;20156;-48
2023/01/29 10:59:18;;;;;;;13.90;7.45;;;3.20;99.90;;;2.03;80.66;98307.84;5006134;28;20183;-43
2023/01/29 11:01:43;;;;;;;8.13;6.20;;;3.10;99.90;;;2.17;81.10;98302.78;4970962;28;20038;-46
2023/01/29 11:04:11;;;;;;;8.98;6.45;;;3.10;99.90;;;2.23;84.54;98308.06;5013066;28;20036;-48